sensor_id;sensor_type;location;lat;lon;timestamp;temperature;humidity
65374;SHT31;52070;53.760;9.678;2023-02-23T00:01:11;7.44;93.35
65374;SHT31;52070;53.760;9.678;2023-02-23T00:03:38;7.46;93.41
65374;SHT31;52070;53.760;9.678;2023-02-23T00:06:06;7.47;93.46
65374;SHT31;52070;53.760;9.678;2023-02-23T00:08:33;7.57;93.50
65374;SHT31;52070;53.760;9.678;2023-02-23T00:11:02;7.60;93.60
65374;SHT31;52070;53.760;9.678;2023-02-23T00:13:32;7.52;93.55
65374;SHT31;52070;53.760;9.678;2023-02-23T00:16:04;7.48;93.48
65374;SHT31;52070;53.760;9.678;2023-02-23T00:18:32;7.44;93.47
65374;SHT31;52070;53.760;9.678;2023-02-23T00:21:12;7.38;93.46
65374;SHT31;52070;53.760;9.678;2023-02-23T00:23:47;7.38;93.45
65374;SHT31;52070;53.760;9.678;2023-02-23T00:26:15;7.35;93.49
65374;SHT31;52070;53.760;9.678;2023-02-23T00:28:47;7.32;93.45
65374;SHT31;52070;53.760;9.678;2023-02-23T00:31:16;7.32;93.48
65374;SHT31;52070;53.760;9.678;2023-02-23T00:33:43;7.32;93.47
65374;SHT31;52070;53.760;9.678;2023-02-23T00:36:12;7.28;93.52
65374;SHT31;52070;53.760;9.678;2023-02-23T00:38:40;7.31;93.53
65374;SHT31;52070;53.760;9.678;2023-02-23T00:41:09;7.31;93.58
65374;SHT31;52070;53.760;9.678;2023-02-23T00:43:38;7.32;93.60
65374;SHT31;52070;53.760;9.678;2023-02-23T00:46:13;7.32;93.64
65374;SHT31;52070;53.760;9.678;2023-02-23T00:48:42;7.34;93.67
65374;SHT31;52070;53.760;9.678;2023-02-23T00:51:10;7.31;93.70
65374;SHT31;52070;53.760;9.678;2023-02-23T00:53:37;7.27;93.67
65374;SHT31;52070;53.760;9.678;2023-02-23T00:56:05;7.24;93.62
65374;SHT31;52070;53.760;9.678;2023-02-23T00:58:32;7.23;93.61
65374;SHT31;52070;53.760;9.678;2023-02-23T01:00:59;7.20;93.59
65374;SHT31;52070;53.760;9.678;2023-02-23T01:03:28;7.24;93.59
65374;SHT31;52070;53.760;9.678;2023-02-23T01:05:58;7.24;93.67
65374;SHT31;52070;53.760;9.678;2023-02-23T01:08:25;7.27;93.71
65374;SHT31;52070;53.760;9.678;2023-02-23T01:10:52;7.28;93.75
65374;SHT31;52070;53.760;9.678;2023-02-23T01:13:19;7.27;93.74
65374;SHT31;52070;53.760;9.678;2023-02-23T01:15:47;7.28;93.83
65374;SHT31;52070;53.760;9.678;2023-02-23T01:18:15;7.26;93.80
65374;SHT31;52070;53.760;9.678;2023-02-23T01:20:44;7.27;93.78
65374;SHT31;52070;53.760;9.678;2023-02-23T01:23:12;7.34;93.84
65374;SHT31;52070;53.760;9.678;2023-02-23T01:25:40;7.28;93.81
65374;SHT31;52070;53.760;9.678;2023-02-23T01:28:07;7.26;93.80
65374;SHT31;52070;53.760;9.678;2023-02-23T01:30:34;7.21;93.77
65374;SHT31;52070;53.760;9.678;2023-02-23T01:33:01;7.21;93.78
65374;SHT31;52070;53.760;9.678;2023-02-23T01:35:28;7.19;93.77
65374;SHT31;52070;53.760;9.678;2023-02-23T01:37:57;7.17;93.79
65374;SHT31;52070;53.760;9.678;2023-02-23T01:40:26;7.17;93.78
65374;SHT31;52070;53.760;9.678;2023-02-23T01:42:56;7.28;93.87
65374;SHT31;52070;53.760;9.678;2023-02-23T01:45:28;7.26;93.92
65374;SHT31;52070;53.760;9.678;2023-02-23T01:47:58;7.20;93.92
65374;SHT31;52070;53.760;9.678;2023-02-23T01:50:35;7.14;93.90
65374;SHT31;52070;53.760;9.678;2023-02-23T01:53:04;7.17;93.88
65374;SHT31;52070;53.760;9.678;2023-02-23T01:55:31;7.11;93.89
65374;SHT31;52070;53.760;9.678;2023-02-23T01:58:04;7.10;93.89
65374;SHT31;52070;53.760;9.678;2023-02-23T02:00:32;7.10;93.85
65374;SHT31;52070;53.760;9.678;2023-02-23T02:03:05;7.09;93.93
65374;SHT31;52070;53.760;9.678;2023-02-23T02:05:35;7.11;94.00
65374;SHT31;52070;53.760;9.678;2023-02-23T02:08:06;7.07;94.02
65374;SHT31;52070;53.760;9.678;2023-02-23T02:10:36;7.07;94.04
65374;SHT31;52070;53.760;9.678;2023-02-23T02:13:14;7.04;94.06
65374;SHT31;52070;53.760;9.678;2023-02-23T02:15:57;7.07;94.11
65374;SHT31;52070;53.760;9.678;2023-02-23T02:18:34;7.03;94.11
65374;SHT31;52070;53.760;9.678;2023-02-23T02:21:22;7.04;94.08
65374;SHT31;52070;53.760;9.678;2023-02-23T02:24:22;7.03;94.15
65374;SHT31;52070;53.760;9.678;2023-02-23T02:27:00;6.96;94.16
65374;SHT31;52070;53.760;9.678;2023-02-23T02:30:04;6.93;94.13
65374;SHT31;52070;53.760;9.678;2023-02-23T02:33:04;6.89;94.09
65374;SHT31;52070;53.760;9.678;2023-02-23T02:36:04;6.83;94.07
65374;SHT31;52070;53.760;9.678;2023-02-23T02:38:43;6.80;94.07
65374;SHT31;52070;53.760;9.678;2023-02-23T02:41:21;6.80;94.08
65374;SHT31;52070;53.760;9.678;2023-02-23T02:43:55;6.79;94.08
65374;SHT31;52070;53.760;9.678;2023-02-23T02:46:25;6.79;94.10
65374;SHT31;52070;53.760;9.678;2023-02-23T02:48:58;6.79;94.12
65374;SHT31;52070;53.760;9.678;2023-02-23T02:51:30;6.77;94.12
65374;SHT31;52070;53.760;9.678;2023-02-23T02:54:03;6.80;94.14
65374;SHT31;52070;53.760;9.678;2023-02-23T02:56:37;6.83;94.21
65374;SHT31;52070;53.760;9.678;2023-02-23T02:59:10;6.85;94.23
65374;SHT31;52070;53.760;9.678;2023-02-23T03:01:55;6.90;94.33
65374;SHT31;52070;53.760;9.678;2023-02-23T03:04:40;6.90;94.38
65374;SHT31;52070;53.760;9.678;2023-02-23T03:07:28;6.89;94.43
65374;SHT31;52070;53.760;9.678;2023-02-23T03:10:21;6.86;94.43
65374;SHT31;52070;53.760;9.678;2023-02-23T03:13:16;6.89;94.42
65374;SHT31;52070;53.760;9.678;2023-02-23T03:16:12;6.97;94.45
65374;SHT31;52070;53.760;9.678;2023-02-23T03:19:10;6.92;94.49
65374;SHT31;52070;53.760;9.678;2023-02-23T03:22:02;6.87;94.43
65374;SHT31;52070;53.760;9.678;2023-02-23T03:24:54;6.87;94.42
65374;SHT31;52070;53.760;9.678;2023-02-23T03:27:46;6.90;94.41
65374;SHT31;52070;53.760;9.678;2023-02-23T03:30:42;6.92;94.51
65374;SHT31;52070;53.760;9.678;2023-02-23T03:33:35;6.90;94.49
65374;SHT31;52070;53.760;9.678;2023-02-23T03:36:24;6.87;94.54
65374;SHT31;52070;53.760;9.678;2023-02-23T03:39:14;6.85;94.56
65374;SHT31;52070;53.760;9.678;2023-02-23T03:42:04;6.85;94.61
65374;SHT31;52070;53.760;9.678;2023-02-23T03:44:52;6.83;94.63
65374;SHT31;52070;53.760;9.678;2023-02-23T03:47:40;6.83;94.64
65374;SHT31;52070;53.760;9.678;2023-02-23T03:50:29;6.87;94.71
65374;SHT31;52070;53.760;9.678;2023-02-23T03:53:17;6.86;94.72
65374;SHT31;52070;53.760;9.678;2023-02-23T03:56:04;6.85;94.76
65374;SHT31;52070;53.760;9.678;2023-02-23T03:58:58;6.86;94.77
65374;SHT31;52070;53.760;9.678;2023-02-23T04:01:47;6.86;94.86
65374;SHT31;52070;53.760;9.678;2023-02-23T04:04:33;6.90;94.84
65374;SHT31;52070;53.760;9.678;2023-02-23T04:07:19;6.92;94.94
65374;SHT31;52070;53.760;9.678;2023-02-23T04:10:06;6.90;94.99
65374;SHT31;52070;53.760;9.678;2023-02-23T04:12:56;6.96;95.05
65374;SHT31;52070;53.760;9.678;2023-02-23T04:15:46;6.99;95.13
65374;SHT31;52070;53.760;9.678;2023-02-23T04:18:16;7.04;95.17
65374;SHT31;52070;53.760;9.678;2023-02-23T04:20:43;7.10;95.19
65374;SHT31;52070;53.760;9.678;2023-02-23T04:23:10;7.10;95.26
65374;SHT31;52070;53.760;9.678;2023-02-23T04:25:37;7.10;95.26
65374;SHT31;52070;53.760;9.678;2023-02-23T04:28:04;7.17;95.31
65374;SHT31;52070;53.760;9.678;2023-02-23T04:30:31;7.16;95.30
65374;SHT31;52070;53.760;9.678;2023-02-23T04:32:58;7.13;95.32
65374;SHT31;52070;53.760;9.678;2023-02-23T04:35:27;7.13;95.32
65374;SHT31;52070;53.760;9.678;2023-02-23T04:37:56;7.16;95.34
65374;SHT31;52070;53.760;9.678;2023-02-23T04:40:23;7.11;95.35
65374;SHT31;52070;53.760;9.678;2023-02-23T04:42:51;7.13;95.37
65374;SHT31;52070;53.760;9.678;2023-02-23T04:45:18;7.11;95.34
65374;SHT31;52070;53.760;9.678;2023-02-23T04:47:45;7.17;95.33
65374;SHT31;52070;53.760;9.678;2023-02-23T04:50:12;7.13;95.36
65374;SHT31;52070;53.760;9.678;2023-02-23T04:52:41;7.14;95.32
65374;SHT31;52070;53.760;9.678;2023-02-23T04:55:15;7.13;95.36
65374;SHT31;52070;53.760;9.678;2023-02-23T04:57:43;7.13;95.34
65374;SHT31;52070;53.760;9.678;2023-02-23T05:00:11;7.14;95.37
65374;SHT31;52070;53.760;9.678;2023-02-23T05:02:38;7.11;95.34
65374;SHT31;52070;53.760;9.678;2023-02-23T05:05:05;7.10;95.34
65374;SHT31;52070;53.760;9.678;2023-02-23T05:07:34;7.07;95.35
65374;SHT31;52070;53.760;9.678;2023-02-23T05:10:02;7.13;95.33
65374;SHT31;52070;53.760;9.678;2023-02-23T05:12:29;7.11;95.36
65374;SHT31;52070;53.760;9.678;2023-02-23T05:14:56;7.11;95.36
65374;SHT31;52070;53.760;9.678;2023-02-23T05:17:23;7.11;95.38
65374;SHT31;52070;53.760;9.678;2023-02-23T05:19:50;7.13;95.37
65374;SHT31;52070;53.760;9.678;2023-02-23T05:22:18;7.19;95.35
65374;SHT31;52070;53.760;9.678;2023-02-23T05:24:45;7.14;95.33
65374;SHT31;52070;53.760;9.678;2023-02-23T05:27:13;7.17;95.31
65374;SHT31;52070;53.760;9.678;2023-02-23T05:29:42;7.17;95.29
65374;SHT31;52070;53.760;9.678;2023-02-23T05:32:09;7.13;95.29
65374;SHT31;52070;53.760;9.678;2023-02-23T05:34:36;7.10;95.26
65374;SHT31;52070;53.760;9.678;2023-02-23T05:37:04;7.16;95.23
65374;SHT31;52070;53.760;9.678;2023-02-23T05:39:31;7.07;95.28
65374;SHT31;52070;53.760;9.678;2023-02-23T05:41:58;7.06;95.30
65374;SHT31;52070;53.760;9.678;2023-02-23T05:44:26;7.04;95.29
65374;SHT31;52070;53.760;9.678;2023-02-23T05:46:53;7.04;95.32
65374;SHT31;52070;53.760;9.678;2023-02-23T05:49:20;7.10;95.31
65374;SHT31;52070;53.760;9.678;2023-02-23T05:51:47;7.13;95.35
65374;SHT31;52070;53.760;9.678;2023-02-23T05:54:14;7.11;95.36
65374;SHT31;52070;53.760;9.678;2023-02-23T05:56:41;7.10;95.35
65374;SHT31;52070;53.760;9.678;2023-02-23T05:59:08;7.09;95.38
65374;SHT31;52070;53.760;9.678;2023-02-23T06:01:36;7.06;95.32
65374;SHT31;52070;53.760;9.678;2023-02-23T06:04:04;7.06;95.31
65374;SHT31;52070;53.760;9.678;2023-02-23T06:06:31;7.07;95.29
65374;SHT31;52070;53.760;9.678;2023-02-23T06:08:58;7.09;95.30
65374;SHT31;52070;53.760;9.678;2023-02-23T06:11:24;7.09;95.28
65374;SHT31;52070;53.760;9.678;2023-02-23T06:13:51;7.11;95.24
65374;SHT31;52070;53.760;9.678;2023-02-23T06:16:18;7.10;95.22
65374;SHT31;52070;53.760;9.678;2023-02-23T06:18:47;7.07;95.20
65374;SHT31;52070;53.760;9.678;2023-02-23T06:21:13;7.09;95.16
65374;SHT31;52070;53.760;9.678;2023-02-23T06:23:40;7.09;95.13
65374;SHT31;52070;53.760;9.678;2023-02-23T06:26:08;7.16;95.07
65374;SHT31;52070;53.760;9.678;2023-02-23T06:28:34;7.14;95.07
65374;SHT31;52070;53.760;9.678;2023-02-23T06:31:01;7.16;95.02
65374;SHT31;52070;53.760;9.678;2023-02-23T06:33:28;7.13;95.00
65374;SHT31;52070;53.760;9.678;2023-02-23T06:35:56;7.10;94.97
65374;SHT31;52070;53.760;9.678;2023-02-23T06:38:23;7.06;94.96
65374;SHT31;52070;53.760;9.678;2023-02-23T06:40:50;7.06;94.97
65374;SHT31;52070;53.760;9.678;2023-02-23T06:43:17;7.10;94.97
65374;SHT31;52070;53.760;9.678;2023-02-23T06:45:45;7.10;95.00
65374;SHT31;52070;53.760;9.678;2023-02-23T06:48:12;7.09;94.97
65374;SHT31;52070;53.760;9.678;2023-02-23T06:50:39;7.06;95.02
65374;SHT31;52070;53.760;9.678;2023-02-23T06:53:07;7.09;95.04
65374;SHT31;52070;53.760;9.678;2023-02-23T06:55:34;7.07;95.04
65374;SHT31;52070;53.760;9.678;2023-02-23T06:58:01;7.10;95.02
65374;SHT31;52070;53.760;9.678;2023-02-23T07:00:29;7.14;95.00
65374;SHT31;52070;53.760;9.678;2023-02-23T07:02:56;7.10;95.04
65374;SHT31;52070;53.760;9.678;2023-02-23T07:05:24;7.07;95.04
65374;SHT31;52070;53.760;9.678;2023-02-23T07:07:51;7.09;95.08
65374;SHT31;52070;53.760;9.678;2023-02-23T07:10:20;7.04;95.07
65374;SHT31;52070;53.760;9.678;2023-02-23T07:12:47;7.04;95.12
65374;SHT31;52070;53.760;9.678;2023-02-23T07:15:14;7.04;95.11
65374;SHT31;52070;53.760;9.678;2023-02-23T07:17:43;7.10;95.16
65374;SHT31;52070;53.760;9.678;2023-02-23T07:20:13;7.06;95.14
65374;SHT31;52070;53.760;9.678;2023-02-23T07:22:41;7.06;95.21
65374;SHT31;52070;53.760;9.678;2023-02-23T07:25:08;7.07;95.26
65374;SHT31;52070;53.760;9.678;2023-02-23T07:27:37;7.06;95.21
65374;SHT31;52070;53.760;9.678;2023-02-23T07:30:05;7.03;95.30
65374;SHT31;52070;53.760;9.678;2023-02-23T07:32:32;7.06;95.32
65374;SHT31;52070;53.760;9.678;2023-02-23T07:34:59;7.01;95.38
65374;SHT31;52070;53.760;9.678;2023-02-23T07:37:26;7.04;95.41
65374;SHT31;52070;53.760;9.678;2023-02-23T07:39:53;7.06;95.44
65374;SHT31;52070;53.760;9.678;2023-02-23T07:42:20;7.01;95.48
65374;SHT31;52070;53.760;9.678;2023-02-23T07:44:48;6.97;95.46
65374;SHT31;52070;53.760;9.678;2023-02-23T07:47:15;6.99;95.49
65374;SHT31;52070;53.760;9.678;2023-02-23T07:49:42;7.03;95.50
65374;SHT31;52070;53.760;9.678;2023-02-23T07:52:09;6.97;95.49
65374;SHT31;52070;53.760;9.678;2023-02-23T07:54:36;6.97;95.50
65374;SHT31;52070;53.760;9.678;2023-02-23T07:57:02;6.96;95.52
65374;SHT31;52070;53.760;9.678;2023-02-23T07:59:29;6.95;95.48
65374;SHT31;52070;53.760;9.678;2023-02-23T08:01:58;6.99;95.45
65374;SHT31;52070;53.760;9.678;2023-02-23T08:04:25;7.00;95.41
65374;SHT31;52070;53.760;9.678;2023-02-23T08:06:52;6.96;95.46
65374;SHT31;52070;53.760;9.678;2023-02-23T08:09:19;7.00;95.39
65374;SHT31;52070;53.760;9.678;2023-02-23T08:11:46;6.96;95.43
65374;SHT31;52070;53.760;9.678;2023-02-23T08:14:13;6.99;95.43
65374;SHT31;52070;53.760;9.678;2023-02-23T08:16:40;7.00;95.38
65374;SHT31;52070;53.760;9.678;2023-02-23T08:19:09;6.97;95.39
65374;SHT31;52070;53.760;9.678;2023-02-23T08:21:35;6.97;95.41
65374;SHT31;52070;53.760;9.678;2023-02-23T08:24:03;7.00;95.35
65374;SHT31;52070;53.760;9.678;2023-02-23T08:26:29;6.99;95.35
65374;SHT31;52070;53.760;9.678;2023-02-23T08:28:56;6.92;95.38
65374;SHT31;52070;53.760;9.678;2023-02-23T08:31:23;6.86;95.42
65374;SHT31;52070;53.760;9.678;2023-02-23T08:33:52;6.77;95.39
65374;SHT31;52070;53.760;9.678;2023-02-23T08:36:20;6.75;95.30
65374;SHT31;52070;53.760;9.678;2023-02-23T08:38:47;6.75;95.27
65374;SHT31;52070;53.760;9.678;2023-02-23T08:41:14;6.68;95.24
65374;SHT31;52070;53.760;9.678;2023-02-23T08:43:41;6.77;95.20
65374;SHT31;52070;53.760;9.678;2023-02-23T08:46:08;6.82;95.18
65374;SHT31;52070;53.760;9.678;2023-02-23T08:48:35;6.83;95.13
65374;SHT31;52070;53.760;9.678;2023-02-23T08:51:04;6.83;95.04
65374;SHT31;52070;53.760;9.678;2023-02-23T08:53:32;6.89;94.99
65374;SHT31;52070;53.760;9.678;2023-02-23T08:56:00;6.89;94.94
65374;SHT31;52070;53.760;9.678;2023-02-23T08:58:28;6.90;94.80
65374;SHT31;52070;53.760;9.678;2023-02-23T09:00:56;6.93;94.58
65374;SHT31;52070;53.760;9.678;2023-02-23T09:03:24;6.90;94.33
65374;SHT31;52070;53.760;9.678;2023-02-23T09:05:53;6.93;94.12
65374;SHT31;52070;53.760;9.678;2023-02-23T09:08:20;6.93;93.92
65374;SHT31;52070;53.760;9.678;2023-02-23T09:10:49;6.90;93.63
65374;SHT31;52070;53.760;9.678;2023-02-23T09:13:16;6.90;93.47
65374;SHT31;52070;53.760;9.678;2023-02-23T09:15:43;6.92;93.31
65374;SHT31;52070;53.760;9.678;2023-02-23T09:18:10;6.96;93.18
65374;SHT31;52070;53.760;9.678;2023-02-23T09:20:40;6.99;93.10
65374;SHT31;52070;53.760;9.678;2023-02-23T09:23:07;7.00;92.91
65374;SHT31;52070;53.760;9.678;2023-02-23T09:25:38;7.04;92.69
65374;SHT31;52070;53.760;9.678;2023-02-23T09:28:10;7.01;92.54
65374;SHT31;52070;53.760;9.678;2023-02-23T09:30:38;7.01;92.08
65374;SHT31;52070;53.760;9.678;2023-02-23T09:33:06;6.96;92.07
65374;SHT31;52070;53.760;9.678;2023-02-23T09:35:34;7.03;91.92
65374;SHT31;52070;53.760;9.678;2023-02-23T09:38:02;7.01;91.97
65374;SHT31;52070;53.760;9.678;2023-02-23T09:40:44;7.06;92.08
65374;SHT31;52070;53.760;9.678;2023-02-23T09:43:14;7.01;92.03
65374;SHT31;52070;53.760;9.678;2023-02-23T09:45:46;6.97;91.94
65374;SHT31;52070;53.760;9.678;2023-02-23T09:48:17;6.97;91.93
65374;SHT31;52070;53.760;9.678;2023-02-23T09:50:47;6.96;91.88
65374;SHT31;52070;53.760;9.678;2023-02-23T09:53:25;6.90;91.82
65374;SHT31;52070;53.760;9.678;2023-02-23T09:55:55;6.93;91.93
65374;SHT31;52070;53.760;9.678;2023-02-23T09:58:26;6.93;91.83
65374;SHT31;52070;53.760;9.678;2023-02-23T10:03:54;7.01;92.09
65374;SHT31;52070;53.760;9.678;2023-02-23T10:06:25;7.00;91.97
65374;SHT31;52070;53.760;9.678;2023-02-23T10:09:02;7.04;91.81
65374;SHT31;52070;53.760;9.678;2023-02-23T10:11:36;7.07;91.58
65374;SHT31;52070;53.760;9.678;2023-02-23T10:14:16;7.16;91.51
65374;SHT31;52070;53.760;9.678;2023-02-23T10:16:57;7.11;90.69
65374;SHT31;52070;53.760;9.678;2023-02-23T10:19:31;7.13;90.25
65374;SHT31;52070;53.760;9.678;2023-02-23T10:22:02;7.19;89.95
65374;SHT31;52070;53.760;9.678;2023-02-23T10:24:33;7.11;89.57
65374;SHT31;52070;53.760;9.678;2023-02-23T10:27:05;7.16;89.73
65374;SHT31;52070;53.760;9.678;2023-02-23T10:29:39;7.19;89.69
65374;SHT31;52070;53.760;9.678;2023-02-23T10:32:14;7.16;89.44
65374;SHT31;52070;53.760;9.678;2023-02-23T10:34:42;7.24;89.27
65374;SHT31;52070;53.760;9.678;2023-02-23T10:37:15;7.37;89.24
65374;SHT31;52070;53.760;9.678;2023-02-23T10:39:42;7.38;89.36
65374;SHT31;52070;53.760;9.678;2023-02-23T10:42:14;7.38;88.90
65374;SHT31;52070;53.760;9.678;2023-02-23T10:44:45;7.31;88.16
65374;SHT31;52070;53.760;9.678;2023-02-23T10:47:15;7.34;87.82
65374;SHT31;52070;53.760;9.678;2023-02-23T10:49:44;7.31;87.78
65374;SHT31;52070;53.760;9.678;2023-02-23T10:52:11;7.28;87.79
65374;SHT31;52070;53.760;9.678;2023-02-23T10:54:43;7.27;87.86
65374;SHT31;52070;53.760;9.678;2023-02-23T10:57:22;7.06;87.26
65374;SHT31;52070;53.760;9.678;2023-02-23T11:00:21;7.07;87.26
65374;SHT31;52070;53.760;9.678;2023-02-23T11:02:52;7.06;87.22
65374;SHT31;52070;53.760;9.678;2023-02-23T11:05:32;7.11;87.65
65374;SHT31;52070;53.760;9.678;2023-02-23T11:08:25;7.19;87.80
65374;SHT31;52070;53.760;9.678;2023-02-23T11:11:06;7.28;88.20
65374;SHT31;52070;53.760;9.678;2023-02-23T11:13:39;7.32;87.98
65374;SHT31;52070;53.760;9.678;2023-02-23T11:16:10;7.37;87.69
65374;SHT31;52070;53.760;9.678;2023-02-23T11:18:38;7.37;87.08
65374;SHT31;52070;53.760;9.678;2023-02-23T11:21:10;7.41;87.12
65374;SHT31;52070;53.760;9.678;2023-02-23T11:23:39;7.41;86.75
65374;SHT31;52070;53.760;9.678;2023-02-23T11:26:20;7.51;87.26
65374;SHT31;52070;53.760;9.678;2023-02-23T11:28:51;7.60;86.95
65374;SHT31;52070;53.760;9.678;2023-02-23T11:31:22;7.61;86.57
65374;SHT31;52070;53.760;9.678;2023-02-23T11:33:53;7.60;86.00
65374;SHT31;52070;53.760;9.678;2023-02-23T11:36:27;7.65;86.67
65374;SHT31;52070;53.760;9.678;2023-02-23T11:39:04;7.67;86.40
65374;SHT31;52070;53.760;9.678;2023-02-23T11:41:32;7.65;86.43
65374;SHT31;52070;53.760;9.678;2023-02-23T11:44:02;7.70;86.79
65374;SHT31;52070;53.760;9.678;2023-02-23T11:46:34;7.75;86.85
65374;SHT31;52070;53.760;9.678;2023-02-23T11:49:03;7.78;86.42
65374;SHT31;52070;53.760;9.678;2023-02-23T11:51:33;7.85;86.77
65374;SHT31;52070;53.760;9.678;2023-02-23T11:54:02;7.82;86.60
65374;SHT31;52070;53.760;9.678;2023-02-23T11:56:32;7.88;86.63
65374;SHT31;52070;53.760;9.678;2023-02-23T11:59:02;7.91;85.95
65374;SHT31;52070;53.760;9.678;2023-02-23T12:01:39;7.88;85.75
65374;SHT31;52070;53.760;9.678;2023-02-23T12:04:21;7.91;85.70
65374;SHT31;52070;53.760;9.678;2023-02-23T12:06:50;7.91;85.70
65374;SHT31;52070;53.760;9.678;2023-02-23T12:09:21;7.98;85.60
65374;SHT31;52070;53.760;9.678;2023-02-23T12:11:53;7.98;85.81
65374;SHT31;52070;53.760;9.678;2023-02-23T12:14:29;7.98;85.88
65374;SHT31;52070;53.760;9.678;2023-02-23T12:17:02;8.03;85.99
65374;SHT31;52070;53.760;9.678;2023-02-23T12:19:33;7.98;85.88
65374;SHT31;52070;53.760;9.678;2023-02-23T12:22:05;8.03;86.63
65374;SHT31;52070;53.760;9.678;2023-02-23T12:24:43;8.07;86.92
65374;SHT31;52070;53.760;9.678;2023-02-23T12:27:14;8.07;86.93
65374;SHT31;52070;53.760;9.678;2023-02-23T12:29:58;8.05;86.36
65374;SHT31;52070;53.760;9.678;2023-02-23T12:32:38;8.02;86.26
65374;SHT31;52070;53.760;9.678;2023-02-23T12:35:12;8.03;86.50
65374;SHT31;52070;53.760;9.678;2023-02-23T12:37:42;8.07;86.65
65374;SHT31;52070;53.760;9.678;2023-02-23T12:40:14;8.09;86.72
65374;SHT31;52070;53.760;9.678;2023-02-23T12:42:48;8.19;87.21
65374;SHT31;52070;53.760;9.678;2023-02-23T12:45:24;8.28;87.09
65374;SHT31;52070;53.760;9.678;2023-02-23T12:47:59;8.32;86.52
65374;SHT31;52070;53.760;9.678;2023-02-23T12:50:31;8.32;85.94
65374;SHT31;52070;53.760;9.678;2023-02-23T12:53:04;8.36;85.43
65374;SHT31;52070;53.760;9.678;2023-02-23T12:55:38;8.37;85.05
65374;SHT31;52070;53.760;9.678;2023-02-23T12:58:16;8.46;85.17
65374;SHT31;52070;53.760;9.678;2023-02-23T13:00:54;8.43;85.22
65374;SHT31;52070;53.760;9.678;2023-02-23T13:03:47;8.42;85.56
65374;SHT31;52070;53.760;9.678;2023-02-23T13:06:26;8.45;85.76
65374;SHT31;52070;53.760;9.678;2023-02-23T13:09:02;8.42;85.88
65374;SHT31;52070;53.760;9.678;2023-02-23T13:11:45;8.36;85.82
65374;SHT31;52070;53.760;9.678;2023-02-23T13:14:23;8.32;86.11
65374;SHT31;52070;53.760;9.678;2023-02-23T13:16:56;8.30;86.50
65374;SHT31;52070;53.760;9.678;2023-02-23T13:19:31;8.36;86.99
65374;SHT31;52070;53.760;9.678;2023-02-23T13:22:19;8.28;86.81
65374;SHT31;52070;53.760;9.678;2023-02-23T13:24:48;8.23;86.92
65374;SHT31;52070;53.760;9.678;2023-02-23T13:27:19;8.23;87.15
65374;SHT31;52070;53.760;9.678;2023-02-23T13:29:50;8.21;87.37
65374;SHT31;52070;53.760;9.678;2023-02-23T13:32:21;8.19;87.28
65374;SHT31;52070;53.760;9.678;2023-02-23T13:34:53;8.25;87.41
65374;SHT31;52070;53.760;9.678;2023-02-23T13:37:24;8.26;87.17
65374;SHT31;52070;53.760;9.678;2023-02-23T13:39:59;8.29;87.03
65374;SHT31;52070;53.760;9.678;2023-02-23T13:42:34;8.21;86.44
65374;SHT31;52070;53.760;9.678;2023-02-23T13:45:23;8.22;86.49
65374;SHT31;52070;53.760;9.678;2023-02-23T13:47:55;8.25;85.81
65374;SHT31;52070;53.760;9.678;2023-02-23T13:50:28;8.29;85.59
65374;SHT31;52070;53.760;9.678;2023-02-23T13:53:01;8.22;85.69
65374;SHT31;52070;53.760;9.678;2023-02-23T13:55:46;8.25;85.52
65374;SHT31;52070;53.760;9.678;2023-02-23T13:58:16;8.22;85.46
65374;SHT31;52070;53.760;9.678;2023-02-23T14:00:51;8.15;85.38
65374;SHT31;52070;53.760;9.678;2023-02-23T14:03:22;8.17;85.79
65374;SHT31;52070;53.760;9.678;2023-02-23T14:05:54;8.17;85.35
65374;SHT31;52070;53.760;9.678;2023-02-23T14:08:27;8.22;85.48
65374;SHT31;52070;53.760;9.678;2023-02-23T14:10:56;8.22;85.41
65374;SHT31;52070;53.760;9.678;2023-02-23T14:13:26;8.25;85.53
65374;SHT31;52070;53.760;9.678;2023-02-23T14:16:09;8.26;85.51
65374;SHT31;52070;53.760;9.678;2023-02-23T14:18:53;8.23;85.32
65374;SHT31;52070;53.760;9.678;2023-02-23T14:21:28;8.29;85.45
65374;SHT31;52070;53.760;9.678;2023-02-23T14:24:13;8.22;85.16
65374;SHT31;52070;53.760;9.678;2023-02-23T14:26:44;8.21;85.41
65374;SHT31;52070;53.760;9.678;2023-02-23T14:29:25;8.21;85.81
65374;SHT31;52070;53.760;9.678;2023-02-23T14:31:55;8.23;86.05
65374;SHT31;52070;53.760;9.678;2023-02-23T14:34:41;8.22;86.03
65374;SHT31;52070;53.760;9.678;2023-02-23T14:37:21;8.21;86.10
65374;SHT31;52070;53.760;9.678;2023-02-23T14:39:51;8.17;86.20
65374;SHT31;52070;53.760;9.678;2023-02-23T14:42:21;8.03;86.14
65374;SHT31;52070;53.760;9.678;2023-02-23T14:44:49;7.93;86.41
65374;SHT31;52070;53.760;9.678;2023-02-23T14:47:19;7.91;86.92
65374;SHT31;52070;53.760;9.678;2023-02-23T14:49:48;7.85;87.13
65374;SHT31;52070;53.760;9.678;2023-02-23T14:52:20;7.85;87.30
65374;SHT31;52070;53.760;9.678;2023-02-23T14:54:49;7.91;87.52
65374;SHT31;52070;53.760;9.678;2023-02-23T14:57:19;7.92;87.52
65374;SHT31;52070;53.760;9.678;2023-02-23T14:59:56;7.86;87.33
65374;SHT31;52070;53.760;9.678;2023-02-23T15:02:24;7.70;87.61
65374;SHT31;52070;53.760;9.678;2023-02-23T15:04:52;7.74;87.93
65374;SHT31;52070;53.760;9.678;2023-02-23T15:07:27;7.70;87.93
65374;SHT31;52070;53.760;9.678;2023-02-23T15:09:56;7.68;88.11
65374;SHT31;52070;53.760;9.678;2023-02-23T15:12:26;7.70;88.20
65374;SHT31;52070;53.760;9.678;2023-02-23T15:14:56;7.67;88.25
65374;SHT31;52070;53.760;9.678;2023-02-23T15:17:25;7.64;88.19
65374;SHT31;52070;53.760;9.678;2023-02-23T15:19:57;7.57;88.30
65374;SHT31;52070;53.760;9.678;2023-02-23T15:22:28;7.57;88.47
65374;SHT31;52070;53.760;9.678;2023-02-23T15:24:59;7.48;88.60
65374;SHT31;52070;53.760;9.678;2023-02-23T15:27:37;7.50;88.81
65374;SHT31;52070;53.760;9.678;2023-02-23T15:30:19;7.50;88.88
65374;SHT31;52070;53.760;9.678;2023-02-23T15:32:47;7.41;88.88
65374;SHT31;52070;53.760;9.678;2023-02-23T15:35:14;7.38;89.00
65374;SHT31;52070;53.760;9.678;2023-02-23T15:37:45;7.35;89.17
65374;SHT31;52070;53.760;9.678;2023-02-23T15:40:16;7.35;89.27
65374;SHT31;52070;53.760;9.678;2023-02-23T15:42:45;7.21;89.41
65374;SHT31;52070;53.760;9.678;2023-02-23T15:45:18;7.13;89.53
65374;SHT31;52070;53.760;9.678;2023-02-23T15:47:51;7.10;89.61
65374;SHT31;52070;53.760;9.678;2023-02-23T15:50:22;7.11;89.50
65374;SHT31;52070;53.760;9.678;2023-02-23T15:52:57;7.07;89.27
65374;SHT31;52070;53.760;9.678;2023-02-23T15:55:29;7.06;88.92
65374;SHT31;52070;53.760;9.678;2023-02-23T15:58:09;6.99;88.30
65374;SHT31;52070;53.760;9.678;2023-02-23T16:00:42;6.97;88.04
65374;SHT31;52070;53.760;9.678;2023-02-23T16:03:21;6.96;87.63
65374;SHT31;52070;53.760;9.678;2023-02-23T16:05:54;6.92;87.17
65374;SHT31;52070;53.760;9.678;2023-02-23T16:08:26;6.83;85.89
65374;SHT31;52070;53.760;9.678;2023-02-23T16:11:01;6.79;84.70
65374;SHT31;52070;53.760;9.678;2023-02-23T16:13:29;6.75;83.80
65374;SHT31;52070;53.760;9.678;2023-02-23T16:15:56;6.62;81.78
65374;SHT31;52070;53.760;9.678;2023-02-23T16:18:33;6.50;80.48
65374;SHT31;52070;53.760;9.678;2023-02-23T16:21:03;6.38;80.22